Time;durP1;ratioP1;P1;durP2;ratioP2;P2;SDS_P1;SDS_P2;PMS_P1;PMS_P2;Temp;Humidity;BMP_temperature;BMP_pressure;BME280_temperature;BME280_humidity;BME280_pressure;Samples;Min_cycle;Max_cycle;Signal;HPM_P1;HPM_P2
2022/08/22 00:00:14;;;;;;;11.18;4.90;;;;;;;16.00;100.00;101365.50;174003;28;1239;-64
2022/08/22 00:00:24;;;;;;;10.45;4.81;;;;;;;16.01;100.00;101361.94;174051;28;1273;-64
2022/08/22 00:00:42;;;;;;;10.93;4.59;;;;;;;16.01;100.00;101367.22;174032;28;2382;-64
2022/08/22 00:01:18;;;;;;;11.50;4.69;;;;;;;16.01;100.00;101367.22;174016;28;1260;-63
2022/08/22 00:01:51;;;;;;;10.50;4.75;;;;;;;16.03;100.00;101365.31;173999;28;1666;-63
2022/08/22 00:02:24;;;;;;;8.95;4.76;;;;;;;16.04;100.00;101364.38;174040;28;1226;-63
2022/08/22 00:03:12;;;;;;;8.54;4.63;;;;;;;16.04;100.00;101364.38;174042;28;1221;-63
2022/08/22 00:03:38;;;;;;;10.02;5.03;;;;;;;16.02;100.00;101358.38;174015;28;1222;-63
2022/08/22 00:04:15;;;;;;;11.82;5.44;;;;;;;16.00;100.00;101360.22;174008;28;2310;-63
2022/08/22 00:05:14;;;;;;;11.51;5.43;;;;;;;15.99;100.00;101369.06;174058;28;1246;-63
2022/08/22 00:05:54;;;;;;;12.91;5.66;;;;;;;15.96;100.00;101363.06;172570;28;1247;-64
2022/08/22 00:06:42;;;;;;;11.46;5.54;;;;;;;15.96;100.00;101364.84;172544;28;1252;-63
2022/08/22 00:07:07;;;;;;;10.01;5.46;;;;;;;15.96;100.00;101365.69;173947;28;1686;-64
2022/08/22 00:07:48;;;;;;;10.55;5.71;;;;;;;15.97;100.00;101366.53;174044;28;1247;-63
2022/08/22 00:08:22;;;;;;;10.46;5.64;;;;;;;15.98;100.00;101364.75;173872;28;1471;-64
2022/08/22 00:08:51;;;;;;;11.43;5.56;;;;;;;15.99;100.00;101361.16;173968;28;1240;-64
2022/08/22 00:09:28;;;;;;;10.48;5.49;;;;;;;15.99;100.00;101367.28;173976;28;1238;-64
2022/08/22 00:09:47;;;;;;;10.93;5.36;;;;;;;16.01;100.00;101361.94;173982;28;1214;-64
2022/08/22 00:10:09;;;;;;;12.61;5.56;;;;;;;16.02;100.00;101368.91;173968;28;1294;-63
2022/08/22 00:10:47;;;;;;;11.21;5.32;;;;;;;16.03;100.00;101366.19;174072;28;1239;-63
2022/08/22 00:11:20;;;;;;;10.57;5.34;;;;;;;16.03;100.00;101360.06;174030;28;1243;-64
2022/08/22 00:11:58;;;;;;;9.77;5.21;;;;;;;16.01;100.00;101367.22;174045;28;1234;-64
2022/08/22 00:12:13;;;;;;;10.96;5.45;;;;;;;16.02;100.00;101363.63;174008;28;1240;-63
2022/08/22 00:12:38;;;;;;;12.65;5.66;;;;;;;16.01;100.00;101368.03;174067;28;1265;-64
2022/08/22 00:13:13;;;;;;;11.51;5.44;;;;;;;16.01;100.00;101372.47;174026;28;1249;-64
2022/08/22 00:13:44;;;;;;;10.84;5.35;;;;;;;16.00;100.00;101368.13;172504;28;1339;-64
2022/08/22 00:14:09;;;;;;;10.63;5.06;;;;;;;16.00;100.00;101365.50;174032;28;1369;-64
2022/08/22 00:14:39;;;;;;;10.64;5.31;;;;;;;16.01;100.00;101367.22;174016;28;1445;-63
2022/08/22 00:14:59;;;;;;;10.16;5.38;;;;;;;16.00;100.00;101366.34;174063;28;1261;-64
2022/08/22 00:15:21;;;;;;;9.74;5.40;;;;;;;15.99;100.00;101364.66;174037;28;1352;-63
2022/08/22 00:15:35;;;;;;;10.41;5.63;;;;;;;15.99;100.00;101371.69;174015;28;1235;-64
2022/08/22 00:15:56;;;;;;;11.00;5.70;;;;;;;15.99;100.00;101366.44;173229;28;1533;-64
2022/08/22 00:16:08;;;;;;;9.71;5.55;;;;;;;16.00;100.00;101368.13;173319;28;1232;-64
2022/08/22 00:16:28;;;;;;;8.52;5.38;;;;;;;16.00;100.00;101365.50;173308;28;1419;-64
2022/08/22 00:16:56;;;;;;;10.49;5.53;;;;;;;16.01;100.00;101367.22;173309;28;1243;-64
2022/08/22 00:17:38;;;;;;;10.96;5.31;;;;;;;16.03;100.00;101370.59;173293;28;1250;-64
2022/08/22 00:18:26;;;;;;;10.52;5.29;;;;;;;16.04;100.00;101369.66;172615;28;1238;-63
2022/08/22 00:18:44;;;;;;;11.16;5.25;;;;;;;16.05;100.00;101369.56;174000;28;1258;-64
2022/08/22 00:19:15;;;;;;;11.43;4.97;;;;;;;16.05;100.00;101374.81;173135;28;1391;-64
2022/08/22 00:19:44;;;;;;;11.29;5.24;;;;;;;16.07;100.00;101369.47;172510;28;3222;-63
2022/08/22 00:20:04;;;;;;;10.07;5.26;;;;;;;16.09;100.00;101364.97;172591;28;1245;-64
2022/08/22 00:20:34;;;;;;;9.82;5.26;;;;;;;16.11;100.00;101372.78;172684;28;1229;-63
2022/08/22 00:20:48;;;;;;;11.07;5.64;;;;;;;16.11;100.00;101364.91;172687;28;1251;-63
2022/08/22 00:21:16;;;;;;;11.76;5.43;;;;;;;16.11;100.00;101370.16;173198;28;1545;-63
2022/08/22 00:22:04;;;;;;;10.79;5.22;;;;;;;16.12;100.00;101366.59;173778;28;1238;-63
2022/08/22 00:22:21;;;;;;;9.44;5.13;;;;;;;16.12;100.00;101361.31;173236;28;1641;-63
2022/08/22 00:22:55;;;;;;;8.44;4.88;;;;;;;16.11;100.00;101368.34;173280;28;1220;-63
2022/08/22 00:23:20;;;;;;;8.40;4.85;;;;;;;16.12;100.00;101370.06;172507;28;1757;-64
2022/08/22 00:24:06;;;;;;;8.86;4.68;;;;;;;16.12;100.00;101359.53;173135;28;1489;-64
2022/08/22 00:24:33;;;;;;;10.43;5.03;;;;;;;16.14;100.00;101362.91;170612;29;1270;-63
2022/08/22 00:25:10;;;;;;;10.60;5.16;;;;;;;16.15;100.00;101369.88;170494;29;1236;-64
2022/08/22 00:26:10;;;;;;;11.25;5.45;;;;;;;16.15;100.00;101359.34;173928;28;1258;-63
2022/08/22 00:26:45;;;;;;;10.88;5.74;;;;;;;16.17;100.00;101362.75;173256;28;1246;-64
2022/08/22 00:27:32;;;;;;;10.84;5.71;;;;;;;16.17;100.00;101373.28;173878;28;1324;-64
2022/08/22 00:27:53;;;;;;;11.52;5.59;;;;;;;16.19;100.00;101371.41;173882;28;1302;-64
2022/08/22 00:28:14;;;;;;;9.90;5.70;;;;;;;16.19;100.00;101371.41;174006;28;1250;-63
2022/08/22 00:28:45;;;;;;;9.52;5.57;;;;;;;16.20;100.00;101367.84;174066;28;1193;-63
2022/08/22 00:29:05;;;;;;;10.61;5.46;;;;;;;16.21;100.00;101368.66;173824;28;1537;-63
2022/08/22 00:29:26;;;;;;;11.13;5.84;;;;;;;16.22;100.00;101371.22;174035;28;1244;-63
2022/08/22 00:29:44;;;;;;;10.40;5.86;;;;;;;16.21;100.00;101369.53;174044;28;1243;-63
2022/08/22 00:30:02;;;;;;;10.35;5.86;;;;;;;16.23;100.00;101369.44;174013;28;1237;-62
2022/08/22 00:30:16;;;;;;;11.45;5.85;;;;;;;16.23;100.00;101366.81;174019;28;1259;-63
2022/08/22 00:30:22;;;;;;;13.02;6.24;;;;;;;16.24;100.00;101367.63;173915;28;1236;-63
2022/08/22 00:30:34;;;;;;;12.66;6.40;;;;;;;16.24;100.00;101372.91;174080;28;906;-63
2022/08/22 00:30:55;;;;;;;14.35;6.30;;;;;;;16.22;100.00;101365.94;174098;28;867;-63
2022/08/22 00:31:20;;;;;;;13.38;6.18;;;;;;;16.25;100.00;101369.38;173136;28;1599;-63
2022/08/22 00:31:38;;;;;;;11.14;5.94;;;;;;;16.22;100.00;101371.22;172525;28;1532;-63
2022/08/22 00:32:05;;;;;;;10.34;6.13;;;;;;;16.23;100.00;101372.06;172690;28;1219;-63
2022/08/22 00:32:31;;;;;;;11.71;6.44;;;;;;;16.22;100.00;101365.94;171758;28;1531;-63
2022/08/22 00:32:56;;;;;;;12.85;6.40;;;;;;;16.22;100.00;101360.69;171943;28;1324;-63
2022/08/22 00:33:16;;;;;;;12.79;6.45;;;;;;;16.23;100.00;101366.81;172518;28;1257;-63
2022/08/22 00:33:47;;;;;;;14.13;6.86;;;;;;;16.23;100.00;101364.19;172609;28;1240;-63
2022/08/22 00:34:21;;;;;;;12.63;6.88;;;;;;;16.24;100.00;101362.38;173307;28;1246;-62
2022/08/22 00:34:45;;;;;;;11.70;6.93;;;;;;;16.24;100.00;101367.63;174036;28;1232;-63
2022/08/22 00:35:02;;;;;;;11.95;6.74;;;;;;;16.22;100.00;101363.31;174034;28;1248;-63
2022/08/22 00:35:25;;;;;;;13.05;6.55;;;;;;;16.24;100.00;101367.63;173964;28;1237;-63
2022/08/22 00:35:46;;;;;;;13.36;6.84;;;;;;;16.24;100.00;101362.38;173990;28;1248;-62
2022/08/22 00:36:36;;;;;;;12.00;6.46;;;;;;;16.24;100.00;101362.38;174023;28;1257;-62
2022/08/22 00:36:51;;;;;;;10.07;5.59;;;;;;;16.24;100.00;101363.22;174021;28;1237;-63
2022/08/22 00:37:08;;;;;;;10.34;5.53;;;;;;;16.25;100.00;101369.38;174012;28;1260;-63
2022/08/22 00:37:28;;;;;;;11.05;5.74;;;;;;;16.24;100.00;101365.00;173948;28;1525;-62
2022/08/22 00:37:43;;;;;;;11.23;6.00;;;;;;;16.24;100.00;101367.63;174017;28;1253;-62
2022/08/22 00:38:05;;;;;;;9.86;6.04;;;;;;;16.24;100.00;101367.63;174030;28;1220;-63
2022/08/22 00:38:25;;;;;;;9.31;6.01;;;;;;;16.25;100.00;101364.09;174014;28;1775;-63
2022/08/22 00:38:41;;;;;;;8.94;5.50;;;;;;;16.25;100.00;101370.19;174032;28;1306;-63
2022/08/22 00:39:12;;;;;;;10.54;5.36;;;;;;;16.26;100.00;101365.78;174056;28;1232;-63
2022/08/22 00:39:37;;;;;;;12.35;5.90;;;;;;;16.25;100.00;101367.56;173985;28;1244;-63
2022/08/22 00:39:55;;;;;;;12.82;6.55;;;;;;;16.26;100.00;101365.78;173140;28;1534;-63
2022/08/22 00:40:35;;;;;;;11.39;6.55;;;;;;;16.26;100.00;101365.78;173292;28;1234;-62
2022/08/22 00:41:03;;;;;;;11.26;6.15;;;;;;;16.26;100.00;101365.78;173300;28;1243;-63
2022/08/22 00:41:32;;;;;;;11.24;6.05;;;;;;;16.27;100.00;101359.56;173283;28;1232;-63
2022/08/22 00:42:20;;;;;;;12.31;6.29;;;;;;;16.28;100.00;101361.28;173290;28;1251;-64
2022/08/22 00:43:15;;;;;;;10.55;6.50;;;;;;;16.28;100.00;101367.38;174034;28;1240;-63
2022/08/22 00:44:22;;;;;;;11.80;7.09;;;;;;;16.28;100.00;101364.75;174029;28;1241;-63
2022/08/22 00:45:18;;;;;;;12.60;6.78;;;;;;;16.26;100.00;101365.78;172588;28;1271;-63
2022/08/22 00:46:10;;;;;;;12.91;6.95;;;;;;;16.24;100.00;101362.38;173994;28;1263;-63
2022/08/22 00:46:47;;;;;;;11.94;6.64;;;;;;;16.21;100.00;101369.53;174119;28;1216;-63
2022/08/22 00:47:26;;;;;;;11.29;6.30;;;;;;;16.24;100.00;101365.00;173850;28;1791;-63
2022/08/22 00:48:10;;;;;;;11.55;6.59;;;;;;;16.21;100.00;101364.25;173962;28;1282;-63
2022/08/22 00:48:50;;;;;;;9.74;6.41;;;;;;;16.19;100.00;101363.50;173314;28;1464;-64
2022/08/22 00:49:32;;;;;;;11.09;6.89;;;;;;;16.17;100.00;101368.00;173247;28;1236;-63
2022/08/22 00:50:18;;;;;;;11.99;7.25;;;;;;;16.18;100.00;101363.59;173239;28;1241;-63
2022/08/22 00:50:44;;;;;;;12.84;7.45;;;;;;;16.18;100.00;101364.44;173996;28;1244;-63
2022/08/22 00:51:27;;;;;;;12.30;7.29;;;;;;;16.17;100.00;101375.06;174006;28;1237;-63
2022/08/22 00:51:53;;;;;;;11.35;7.21;;;;;;;16.18;100.00;101369.69;173981;28;1250;-63
2022/08/22 00:52:17;;;;;;;13.10;7.57;;;;;;;16.18;100.00;101364.44;174004;28;1242;-63
2022/08/22 00:52:40;;;;;;;12.52;7.29;;;;;;;16.17;100.00;101368.00;174014;28;1242;-64
2022/08/22 00:53:23;;;;;;;11.70;6.61;;;;;;;16.16;100.00;101366.31;174057;28;1232;-63
2022/08/22 00:54:04;;;;;;;11.98;6.56;;;;;;;16.14;100.00;101367.31;173992;28;1262;-63
2022/08/22 00:54:33;;;;;;;11.30;6.64;;;;;;;16.14;100.00;101372.59;173983;28;1251;-63
2022/08/22 00:55:00;;;;;;;11.50;6.69;;;;;;;16.13;100.00;101365.63;173841;28;1526;-64
2022/08/22 00:55:33;;;;;;;13.52;6.55;;;;;;;16.13;100.00;101371.75;173967;28;1260;-63
2022/08/22 00:55:41;;;;;;;13.35;6.68;;;;;;;16.13;100.00;101368.28;173978;28;1242;-63
2022/08/22 00:56:15;;;;;;;13.33;7.03;;;;;;;16.11;100.00;101364.91;174048;28;918;-63
2022/08/22 00:57:02;;;;;;;13.18;7.15;;;;;;;16.11;100.00;101362.25;173991;28;1238;-64
2022/08/22 00:57:50;;;;;;;12.85;7.03;;;;;;;16.12;100.00;101364.81;173939;28;1236;-63
2022/08/22 00:58:24;;;;;;;12.34;7.19;;;;;;;16.12;100.00;101369.22;173984;28;1230;-63
2022/08/22 00:59:07;;;;;;;12.40;7.06;;;;;;;16.13;100.00;101365.63;172564;28;1252;-63
2022/08/22 00:59:38;;;;;;;12.85;6.89;;;;;;;16.13;100.00;101366.50;172578;28;1247;-63
2022/08/22 01:00:10;;;;;;;11.30;7.09;;;;;;;16.13;100.00;101371.75;172570;28;1287;-63
2022/08/22 01:00:22;;;;;;;12.69;7.31;;;;;;;16.13;100.00;101366.50;172620;28;1543;-63
2022/08/22 01:00:34;;;;;;;14.57;7.07;;;;;;;16.13;100.00;101370.91;172618;28;1255;-63
2022/08/22 01:00:52;;;;;;;15.83;7.39;;;;;;;16.13;100.00;101374.41;174038;28;1261;-63
2022/08/22 01:01:05;;;;;;;14.25;7.72;;;;;;;16.13;100.00;101377.03;174021;28;1257;-63
2022/08/22 01:01:21;;;;;;;12.59;7.65;;;;;;;16.13;100.00;101369.13;173916;28;1495;-63
2022/08/22 01:01:36;;;;;;;12.74;7.46;;;;;;;16.13;100.00;101377.03;173878;28;1324;-63
2022/08/22 01:02:03;;;;;;;14.38;7.35;;;;;;;16.13;100.00;101371.75;174032;28;1240;-63
2022/08/22 01:02:45;;;;;;;13.99;7.31;;;;;;;16.13;100.00;101371.75;174006;28;1237;-64
2022/08/22 01:03:16;;;;;;;12.56;7.38;;;;;;;16.15;100.00;101374.31;174023;28;1236;-63
2022/08/22 01:03:30;;;;;;;13.43;7.45;;;;;;;16.14;100.00;101373.44;174014;28;1234;-63
2022/08/22 01:03:47;;;;;;;11.68;7.39;;;;;;;16.15;100.00;101369.03;173997;28;1257;-63
2022/08/22 01:04:13;;;;;;;11.90;7.51;;;;;;;16.15;100.00;101377.78;173892;28;1784;-62
2022/08/22 01:04:37;;;;;;;12.98;7.32;;;;;;;16.15;100.00;101369.88;173913;28;1321;-63
2022/08/22 01:05:21;;;;;;;13.29;7.35;;;;;;;16.16;100.00;101370.72;173973;28;1249;-63
2022/08/22 01:05:51;;;;;;;13.54;7.54;;;;;;;16.17;100.00;101368.00;173853;28;1238;-63
2022/08/22 01:06:27;;;;;;;12.16;7.10;;;;;;;16.17;100.00;101370.66;174023;28;1257;-63
2022/08/22 01:07:10;;;;;;;13.01;7.41;;;;;;;16.17;100.00;101372.41;174021;28;1244;-63
2022/08/22 01:07:53;;;;;;;13.46;8.01;;;;;;;16.16;100.00;101371.59;173873;28;1427;-63
2022/08/22 01:08:08;;;;;;;13.59;8.43;;;;;;;16.17;100.00;101372.41;174000;28;1245;-63
2022/08/22 01:09:07;;;;;;;13.23;8.25;;;;;;;16.16;100.00;101371.59;174033;28;1252;-63
2022/08/22 01:09:21;;;;;;;14.52;8.84;;;;;;;16.16;100.00;101368.97;173998;28;1269;-63
2022/08/22 01:10:13;;;;;;;15.56;9.29;;;;;;;16.15;100.00;101369.88;174014;28;1271;-63
2022/08/22 01:11:15;;;;;;;13.70;8.49;;;;;;;16.14;100.00;101368.19;172627;28;1243;-63
2022/08/22 01:11:33;;;;;;;12.45;8.18;;;;;;;16.16;100.00;101368.09;172584;28;1243;-63
2022/08/22 01:12:13;;;;;;;12.48;8.30;;;;;;;16.16;100.00;101368.97;172539;28;1243;-63
2022/08/22 01:12:37;;;;;;;13.89;8.31;;;;;;;16.16;100.00;101371.59;172630;28;1266;-63
2022/08/22 01:13:27;;;;;;;15.55;8.80;;;;;;;16.17;100.00;101375.91;172549;28;1240;-63
2022/08/22 01:14:12;;;;;;;14.79;8.31;;;;;;;16.18;100.00;101369.69;170531;29;1250;-63
2022/08/22 01:14:43;;;;;;;12.93;7.20;;;;;;;16.19;100.00;101368.75;170591;29;1272;-63
2022/08/22 01:15:00;;;;;;;12.13;7.03;;;;;;;16.20;100.00;101367.00;170561;29;1398;-63
2022/08/22 01:15:16;;;;;;;11.55;6.60;;;;;;;16.19;100.00;101366.13;170566;29;1272;-64
2022/08/22 01:15:28;;;;;;;12.43;6.76;;;;;;;16.20;100.00;101367.00;170593;29;1257;-63
2022/08/22 01:15:37;;;;;;;12.69;7.00;;;;;;;16.20;100.00;101367.00;170566;29;2361;-63
2022/08/22 01:15:43;;;;;;;13.08;7.13;;;;;;;16.20;100.00;101365.22;170553;29;1141;-63
2022/08/22 01:16:08;;;;;;;13.33;7.03;;;;;;;16.18;100.00;101364.44;170632;29;1062;-63
2022/08/22 01:17:13;;;;;;;12.27;6.93;;;;;;;16.18;100.00;101369.69;170570;29;1287;-63
2022/08/22 01:17:59;;;;;;;12.13;7.13;;;;;;;16.18;100.00;101363.59;167989;29;1257;-63
2022/08/22 01:19:08;;;;;;;14.04;7.57;;;;;;;16.16;100.00;101363.69;168588;29;1274;-63
2022/08/22 01:20:10;;;;;;;12.81;7.53;;;;;;;16.16;100.00;101363.69;168053;29;1279;-63
2022/08/22 01:20:58;;;;;;;13.18;7.80;;;;;;;16.15;100.00;101358.50;170673;29;1351;-63
2022/08/22 01:21:50;;;;;;;14.06;8.44;;;;;;;16.15;100.00;101372.50;170653;29;1248;-62
2022/08/22 01:22:34;;;;;;;13.66;8.39;;;;;;;16.15;100.00;101375.16;170660;29;1257;-63
2022/08/22 01:22:54;;;;;;;12.38;7.86;;;;;;;16.15;100.00;101369.88;170664;29;1235;-62
2022/08/22 01:23:15;;;;;;;13.60;8.20;;;;;;;16.15;100.00;101367.25;170659;29;1245;-63
2022/08/22 01:23:55;;;;;;;14.55;8.31;;;;;;;16.16;100.00;101371.59;170683;29;1237;-63
2022/08/22 01:25:32;;;;;;;14.93;8.56;;;;;;;16.17;100.00;101367.16;173137;28;1198;-63
2022/08/22 01:25:55;;;;;;;15.60;8.32;;;;;;;16.16;100.00;101371.59;173455;28;2216;-62
2022/08/22 01:26:22;;;;;;;15.16;8.23;;;;;;;16.16;100.00;101362.84;173466;28;1245;-63
2022/08/22 01:27:29;;;;;;;14.20;8.18;;;;;;;16.15;100.00;101369.88;173398;28;1282;-64
2022/08/22 01:28:35;;;;;;;12.90;8.25;;;;;;;16.16;100.00;101366.31;172589;28;1531;-63
2022/08/22 01:29:28;;;;;;;12.40;7.94;;;;;;;16.16;100.00;101371.59;171296;28;1304;-64
2022/08/22 01:29:58;;;;;;;13.61;8.01;;;;;;;16.15;100.00;101367.25;173082;28;1258;-63
2022/08/22 01:30:31;;;;;;;13.66;7.93;;;;;;;16.15;100.00;101364.59;173311;28;1503;-63
2022/08/22 01:31:06;;;;;;;12.40;7.65;;;;;;;16.14;100.00;101362.91;173383;28;1246;-63
2022/08/22 01:31:39;;;;;;;13.38;7.69;;;;;;;16.13;100.00;101371.75;173377;28;1251;-63
2022/08/22 01:33:11;;;;;;;13.05;8.24;;;;;;;16.10;100.00;101366.66;173395;28;1360;-63
2022/08/22 01:33:28;;;;;;;12.21;7.93;;;;;;;16.07;100.00;101366.84;173457;28;1268;-63
2022/08/22 01:34:17;;;;;;;12.82;7.84;;;;;;;16.07;100.00;101361.56;173419;28;1240;-63
2022/08/22 01:34:52;;;;;;;13.80;8.14;;;;;;;16.05;100.00;101364.28;173459;28;1251;-63
2022/08/22 01:35:52;;;;;;;15.06;8.24;;;;;;;16.07;100.00;101361.56;173417;28;1243;-63
2022/08/22 01:36:26;;;;;;;13.96;8.20;;;;;;;16.05;100.00;101363.47;173449;28;1242;-62
2022/08/22 01:36:40;;;;;;;11.76;8.11;;;;;;;16.05;100.00;101358.19;173433;28;1367;-63
2022/08/22 01:37:24;;;;;;;12.90;8.44;;;;;;;16.05;100.00;101363.47;173455;28;1245;-63
2022/08/22 01:38:03;;;;;;;14.88;8.50;;;;;;;16.06;100.00;101359.88;173373;28;1918;-63
2022/08/22 01:39:00;;;;;;;14.10;8.51;;;;;;;16.02;100.00;101361.00;173423;28;1246;-63
2022/08/22 01:39:39;;;;;;;13.30;8.32;;;;;;;16.03;100.00;101357.44;173046;28;1293;-63
2022/08/22 01:40:44;;;;;;;11.89;7.91;;;;;;;16.01;100.00;101357.50;173379;28;1257;-63
2022/08/22 01:41:25;;;;;;;13.61;8.24;;;;;;;15.99;100.00;101354.13;173288;28;1507;-63
2022/08/22 01:42:11;;;;;;;14.13;8.39;;;;;;;15.99;100.00;101361.16;173404;28;1237;-63
2022/08/22 01:42:39;;;;;;;13.77;8.40;;;;;;;15.97;100.00;101350.72;172591;28;1521;-63
2022/08/22 01:43:05;;;;;;;14.39;8.27;;;;;;;15.88;100.00;101351.22;172604;28;1524;-63
2022/08/22 01:43:57;;;;;;;13.45;8.30;;;;;;;15.91;100.00;101357.16;172701;28;1231;-64
2022/08/22 01:44:02;;;;;;;12.68;8.13;;;;;;;15.92;100.00;101355.38;172716;28;1251;-63
2022/08/22 01:44:31;;;;;;;13.48;7.80;;;;;;;15.91;100.00;101356.31;172768;28;1002;-63
2022/08/22 01:45:14;;;;;;;13.35;7.76;;;;;;;15.93;100.00;101354.44;172715;28;1252;-63
2022/08/22 01:45:40;;;;;;;14.35;7.89;;;;;;;15.89;100.00;101353.78;173345;28;1221;-63
2022/08/22 01:46:26;;;;;;;14.55;8.07;;;;;;;15.93;100.00;101355.31;173454;28;1228;-63
2022/08/22 01:46:46;;;;;;;12.73;7.81;;;;;;;15.93;100.00;101355.31;173318;28;1396;-63
2022/08/22 01:47:11;;;;;;;12.09;7.57;;;;;;;15.92;100.00;101355.38;173394;28;1253;-63
2022/08/22 01:47:34;;;;;;;12.81;8.01;;;;;;;15.93;100.00;101354.44;173387;28;1250;-63
2022/08/22 01:48:05;;;;;;;13.70;8.27;;;;;;;15.92;100.00;101353.63;173401;28;1257;-64
2022/08/22 01:48:20;;;;;;;12.59;8.10;;;;;;;15.92;100.00;101353.63;173382;28;1246;-63
2022/08/22 01:48:49;;;;;;;12.06;8.13;;;;;;;15.93;100.00;101355.31;173454;28;1277;-63
2022/08/22 01:49:18;;;;;;;12.85;7.96;;;;;;;15.95;100.00;101353.44;173434;28;1233;-63
2022/08/22 01:49:32;;;;;;;15.21;8.11;;;;;;;15.94;100.00;101354.34;173442;28;1239;-63
2022/08/22 01:49:49;;;;;;;13.55;8.39;;;;;;;15.94;100.00;101346.47;173428;28;1230;-63
2022/08/22 01:50:11;;;;;;;13.15;8.25;;;;;;;15.95;100.00;101355.25;173417;28;1229;-63
2022/08/22 01:50:52;;;;;;;12.61;8.15;;;;;;;15.92;100.00;101350.97;173384;28;1246;-64
2022/08/22 01:51:16;;;;;;;11.68;8.09;;;;;;;15.93;100.00;101354.44;172009;28;1276;-62
2022/08/22 01:51:38;;;;;;;12.36;8.10;;;;;;;15.91;100.00;101357.16;173461;28;1259;-63
2022/08/22 01:52:17;;;;;;;13.64;8.38;;;;;;;15.93;100.00;101355.31;173449;28;1242;-62
2022/08/22 01:53:10;;;;;;;13.11;8.20;;;;;;;15.94;100.00;101350.88;173301;28;1610;-63
2022/08/22 01:53:49;;;;;;;12.68;8.29;;;;;;;15.95;100.00;101356.06;173392;28;1249;-63
2022/08/22 01:54:23;;;;;;;13.15;8.11;;;;;;;15.95;100.00;101350.81;172682;28;1270;-63
2022/08/22 01:54:56;;;;;;;13.23;8.26;;;;;;;15.95;100.00;101350.81;173455;28;1250;-64
2022/08/22 01:55:31;;;;;;;13.65;8.65;;;;;;;15.96;100.00;101351.66;173461;28;1246;-63
2022/08/22 01:56:03;;;;;;;13.81;8.57;;;;;;;15.96;100.00;101349.03;172027;28;1241;-63
2022/08/22 01:56:17;;;;;;;12.66;8.39;;;;;;;15.94;100.00;101350.88;172036;28;1248;-63
2022/08/22 01:56:24;;;;;;;13.61;8.06;;;;;;;15.92;100.00;101358.88;171985;28;1253;-62
2022/08/22 01:56:37;;;;;;;14.05;8.43;;;;;;;15.92;100.00;101350.13;171994;28;1086;-63
2022/08/22 01:56:46;;;;;;;14.13;8.68;;;;;;;15.93;100.00;101350.03;172904;28;1245;-63
2022/08/22 01:57:01;;;;;;;14.30;8.70;;;;;;;15.93;100.00;101347.41;173462;28;1049;-63
2022/08/22 01:57:08;;;;;;;14.27;8.73;;;;;;;15.94;100.00;101350.88;173366;28;1238;-63
2022/08/22 01:57:16;;;;;;;13.85;8.60;;;;;;;15.94;100.00;101351.72;173460;28;1001;-62
2022/08/22 01:57:23;;;;;;;12.66;8.38;;;;;;;15.94;100.00;101354.34;173442;28;1137;-63
2022/08/22 01:57:29;;;;;;;12.60;8.27;;;;;;;15.94;100.00;101351.72;173466;28;962;-63
2022/08/22 01:57:52;;;;;;;12.87;8.27;;;;;;;15.93;100.00;101354.44;172667;28;1186;-63
2022/08/22 01:58:32;;;;;;;13.86;8.40;;;;;;;15.92;100.00;101342.22;172595;28;2961;-62
2022/08/22 01:59:07;;;;;;;14.51;8.61;;;;;;;15.94;100.00;101345.59;172739;28;1248;-63
2022/08/22 01:59:29;;;;;;;13.80;8.57;;;;;;;15.94;100.00;101351.72;172713;28;1258;-63
2022/08/22 01:59:46;;;;;;;14.01;8.45;;;;;;;15.95;100.00;101350.81;172713;28;1247;-63
2022/08/22 02:00:00;;;;;;;13.26;8.14;;;;;;;15.95;100.00;101353.44;172700;28;1255;-63
2022/08/22 02:00:16;;;;;;;11.71;8.04;;;;;;;15.96;100.00;101346.41;173475;28;1232;-63
2022/08/22 02:00:24;;;;;;;11.50;8.10;;;;;;;15.95;100.00;101347.34;173439;28;1236;-63
2022/08/22 02:01:07;;;;;;;12.83;8.13;;;;;;;15.65;100.00;101351.59;173438;28;989;-63
2022/08/22 02:01:51;;;;;;;14.70;8.43;;;;;;;15.79;100.00;101350.81;173428;28;1258;-63
2022/08/22 02:02:33;;;;;;;14.26;8.39;;;;;;;15.83;100.00;101354.13;173453;28;1245;-63
2022/08/22 02:03:00;;;;;;;14.18;8.25;;;;;;;15.86;100.00;101345.19;173442;28;1371;-63
2022/08/22 02:03:26;;;;;;;14.82;7.91;;;;;;;15.84;100.00;101347.91;173462;28;1250;-63
2022/08/22 02:04:38;;;;;;;13.27;8.09;;;;;;;15.81;100.00;101348.09;173407;28;1268;-63
2022/08/22 02:04:58;;;;;;;13.44;8.31;;;;;;;15.78;100.00;101350.91;171968;28;1256;-63
2022/08/22 02:05:15;;;;;;;13.51;8.45;;;;;;;15.75;100.00;101351.06;172007;28;1251;-63
2022/08/22 02:05:36;;;;;;;13.21;8.13;;;;;;;15.74;100.00;101352.03;171927;28;1260;-63
2022/08/22 02:05:59;;;;;;;13.15;8.18;;;;;;;15.69;100.00;101347.88;171993;28;1244;-63
2022/08/22 02:06:15;;;;;;;12.45;8.18;;;;;;;15.73;100.00;101350.31;171991;28;1273;-63
2022/08/22 02:07:05;;;;;;;12.39;7.97;;;;;;;15.78;100.00;101349.09;173420;28;1255;-63
2022/08/22 02:07:24;;;;;;;13.46;8.02;;;;;;;15.81;100.00;101348.94;173427;28;1240;-63
2022/08/22 02:07:43;;;;;;;12.61;7.70;;;;;;;15.84;100.00;101351.41;173421;28;1227;-63
2022/08/22 02:08:04;;;;;;;11.68;7.68;;;;;;;15.86;100.00;101347.81;173462;28;1246;-63
2022/08/22 02:08:43;;;;;;;12.15;7.99;;;;;;;15.87;100.00;101345.09;173465;28;1214;-63
2022/08/22 02:09:05;;;;;;;13.69;8.09;;;;;;;15.89;100.00;101356.41;173425;28;1253;-63
2022/08/22 02:09:29;;;;;;;13.45;8.41;;;;;;;15.88;100.00;101338.91;173423;28;1250;-63
2022/08/22 02:09:58;;;;;;;13.46;8.26;;;;;;;15.90;100.00;101344.09;173447;28;1257;-63
2022/08/22 02:10:23;;;;;;;14.01;7.91;;;;;;;15.90;100.00;101342.31;173445;28;1348;-63
2022/08/22 02:11:02;;;;;;;11.75;7.82;;;;;;;15.91;100.00;101346.63;173444;28;1257;-63
2022/08/22 02:11:30;;;;;;;13.91;8.19;;;;;;;15.92;100.00;101350.97;173449;28;1232;-63
2022/08/22 02:11:51;;;;;;;13.34;8.15;;;;;;;15.92;100.00;101348.34;173429;28;1328;-63
2022/08/22 02:12:33;;;;;;;12.95;8.07;;;;;;;15.93;100.00;101347.41;173394;28;1248;-63
2022/08/22 02:13:16;;;;;;;14.81;8.10;;;;;;;15.92;100.00;101340.44;173440;28;1254;-63
2022/08/22 02:13:48;;;;;;;14.29;8.13;;;;;;;15.83;100.00;101349.72;171972;28;1253;-63
2022/08/22 02:14:02;;;;;;;13.82;7.95;;;;;;;15.89;100.00;101352.91;173229;28;1251;-63
2022/08/22 02:14:31;;;;;;;12.80;7.72;;;;;;;15.75;100.00;101345.81;173412;28;1237;-63
2022/08/22 02:14:54;;;;;;;13.43;8.14;;;;;;;15.76;100.00;101348.34;173450;28;1290;-63
2022/08/22 02:15:23;;;;;;;13.39;7.93;;;;;;;15.82;100.00;101352.44;173405;28;1233;-63
2022/08/22 02:15:37;;;;;;;12.10;7.78;;;;;;;15.83;100.00;101343.59;173409;28;1251;-64
2022/08/22 02:16:01;;;;;;;11.93;7.88;;;;;;;15.84;100.00;101356.66;173435;28;1243;-63
2022/08/22 02:16:19;;;;;;;12.76;7.72;;;;;;;15.88;100.00;101346.78;173485;28;1250;-63
2022/08/22 02:16:45;;;;;;;14.56;7.82;;;;;;;15.88;100.00;101349.44;173449;28;1247;-63
2022/08/22 02:17:09;;;;;;;14.77;7.90;;;;;;;15.89;100.00;101345.03;173409;28;1267;-63
2022/08/22 02:17:51;;;;;;;13.18;7.74;;;;;;;15.90;100.00;101344.09;173436;28;1259;-63
2022/08/22 02:18:19;;;;;;;12.31;7.56;;;;;;;15.90;100.00;101344.94;173349;28;1261;-63
2022/08/22 02:18:46;;;;;;;13.34;7.74;;;;;;;15.90;100.00;101339.69;173425;28;1369;-63
2022/08/22 02:19:13;;;;;;;13.69;7.81;;;;;;;15.93;100.00;101354.44;173409;28;1242;-63
2022/08/22 02:19:43;;;;;;;13.31;7.70;;;;;;;15.93;100.00;101350.03;173423;28;1219;-63
2022/08/22 02:20:19;;;;;;;13.23;7.49;;;;;;;15.92;100.00;101343.09;173258;28;2091;-63
2022/08/22 02:21:04;;;;;;;13.69;7.65;;;;;;;15.90;100.00;101339.69;173390;28;1249;-62
2022/08/22 02:21:31;;;;;;;13.61;7.64;;;;;;;15.90;100.00;101350.19;173487;28;1256;-62
2022/08/22 02:22:26;;;;;;;13.71;7.72;;;;;;;15.92;100.00;101345.72;173441;28;1249;-62
2022/08/22 02:22:42;;;;;;;12.27;7.55;;;;;;;15.94;100.00;101346.47;171951;28;1269;-64
2022/08/22 02:23:05;;;;;;;14.79;7.90;;;;;;;15.94;100.00;101343.81;173421;28;1246;-63